createdAt,value
2019-01-09T00:04:29.873Z,99504.56
2019-01-09T00:09:32.049Z,99518.17
2019-01-09T00:14:35.085Z,99512.34
2019-01-09T00:19:37.719Z,99516.51
2019-01-09T00:24:40.211Z,99516.96
2019-01-09T00:29:43.306Z,99520.55
2019-01-09T00:34:45.605Z,99532.77
2019-01-09T00:39:48.585Z,99527.52
2019-01-09T00:44:51.559Z,99526.34
2019-01-09T00:49:54.248Z,99530.20
2019-01-09T00:54:56.830Z,99535.72
2019-01-09T00:59:59.583Z,99537.53
2019-01-09T01:05:30.007Z,99538.16
2019-01-09T01:11:18.862Z,99554.77
2019-01-09T01:17:17.827Z,99558.27
2019-01-09T01:23:11.238Z,99564.77
2019-01-09T01:29:13.023Z,99564.32
2019-01-09T01:35:37.802Z,99579.75
2019-01-09T01:41:00.655Z,99584.89
2019-01-09T01:46:44.066Z,99587.15
2019-01-09T01:53:02.604Z,99603.58
2019-01-09T01:59:42.517Z,99603.20
2019-01-09T02:05:49.857Z,99617.34
2019-01-09T02:12:01.341Z,99627.93
2019-01-09T02:17:51.590Z,99638.00
2019-01-09T03:56:19.417Z,99729.56
2019-01-09T04:01:22.090Z,99732.52
2019-01-09T04:06:25.245Z,99733.63
2019-01-09T04:11:28.198Z,99751.56
2019-01-09T04:16:30.694Z,99754.66
2019-01-09T04:21:32.864Z,99756.03
2019-01-09T04:26:35.704Z,99759.57
2019-01-09T04:31:38.897Z,99769.34
2019-01-09T04:36:41.384Z,99761.69
2019-01-09T04:41:44.033Z,99766.67
2019-01-09T04:46:47.911Z,99771.36
2019-01-09T04:51:50.552Z,99780.07
2019-01-09T04:56:52.862Z,99770.30
2019-01-09T05:01:55.709Z,99774.03
2019-01-09T05:07:00.691Z,99782.32
2019-01-09T05:12:02.982Z,99775.54
2019-01-09T05:17:05.194Z,99785.05
2019-01-09T05:22:07.396Z,99789.06
2019-01-09T05:27:09.568Z,99789.91
2019-01-09T05:32:12.182Z,99799.64
2019-01-09T05:37:14.896Z,99809.30
2019-01-09T05:42:17.560Z,99802.59
2019-01-09T05:47:20.434Z,99815.89
2019-01-09T05:52:23.605Z,99818.08
2019-01-09T05:57:25.825Z,99821.70
2019-01-09T06:02:28.517Z,99829.03
2019-01-09T06:07:31.074Z,99836.39
2019-01-09T06:12:33.972Z,99836.45
2019-01-09T06:17:36.961Z,99844.16
2019-01-09T06:22:40.034Z,99848.17
2019-01-09T06:27:42.615Z,99856.23
2019-01-09T06:32:44.964Z,99873.48
2019-01-09T06:37:47.096Z,99874.77
2019-01-09T06:42:49.880Z,99883.53
2019-01-09T06:47:52.438Z,99885.32
2019-01-09T06:52:54.759Z,99879.80
2019-01-09T06:57:57.512Z,99885.15
2019-01-09T07:02:59.897Z,99896.42
2019-01-09T07:08:02.360Z,99905.41
2019-01-09T07:13:04.623Z,99911.77
2019-01-09T07:18:06.804Z,99923.39
2019-01-09T07:23:09.474Z,99923.69
2019-01-09T07:28:12.017Z,99930.95
2019-01-09T07:33:14.659Z,99938.87
2019-01-09T07:38:17.395Z,99942.93
2019-01-09T07:43:19.780Z,99949.50
2019-01-09T07:48:22.064Z,99948.37
2019-01-09T07:53:24.741Z,99964.61
2019-01-09T07:58:27.267Z,99966.80
2019-01-09T08:03:29.579Z,99976.08
2019-01-09T08:08:31.778Z,99986.81
2019-01-09T08:13:33.930Z,99992.03
2019-01-09T08:18:36.599Z,99999.50
2019-01-09T08:23:38.760Z,100010.22
2019-01-09T08:28:41.682Z,100022.53
2019-01-09T08:33:44.112Z,100032.11
2019-01-09T08:38:47.297Z,100040.31
2019-01-09T08:43:49.809Z,100042.72
2019-01-09T08:48:52.968Z,100049.64
2019-01-09T08:53:55.199Z,100062.68
2019-01-09T08:58:57.939Z,100072.95
2019-01-09T09:04:00.291Z,100079.82
2019-01-09T09:09:04.887Z,100097.75
2019-01-09T09:14:08.145Z,100103.77
2019-01-09T09:19:11.863Z,100110.64
2019-01-09T09:24:14.617Z,100124.13
2019-01-09T09:29:16.885Z,100124.13
2019-01-09T09:34:19.609Z,100136.92
2019-01-09T09:39:21.846Z,100141.92
2019-01-09T09:44:24.551Z,100157.45
2019-01-09T09:49:27.377Z,100164.08
2019-01-09T09:54:29.892Z,100170.30
2019-01-09T09:59:32.336Z,100176.59
2019-01-09T10:04:35.028Z,100180.34
2019-01-09T10:09:37.465Z,100187.13
2019-01-09T10:14:40.294Z,100202.54
2019-01-09T10:19:42.971Z,100202.83
2019-01-09T10:24:45.257Z,100215.94
2019-01-09T10:29:47.383Z,100213.67
2019-01-09T10:34:49.784Z,100214.81
2019-01-09T10:39:52.317Z,100233.54
2019-01-09T10:44:54.487Z,100234.83
2019-01-09T10:49:56.679Z,100246.56
2019-01-09T10:54:59.136Z,100245.36
2019-01-09T11:00:01.952Z,100250.81
2019-01-09T11:05:05.988Z,100262.33
2019-01-09T11:10:09.096Z,100255.84
2019-01-09T11:15:11.966Z,100255.70
2019-01-09T11:20:17.298Z,100255.13
2019-01-09T11:25:25.815Z,100262.34
2019-01-09T11:30:28.118Z,100280.59
2019-01-09T11:35:30.504Z,100285.00
2019-01-09T11:40:32.900Z,100281.41
2019-01-09T11:45:35.859Z,100291.49
2019-01-09T11:50:38.022Z,100283.22
2019-01-09T11:55:40.230Z,100293.95
2019-01-09T12:00:42.846Z,100302.13
2019-01-09T12:05:45.339Z,100315.29
2019-01-09T12:10:48.217Z,100315.43
2019-01-09T12:15:50.471Z,100321.91
2019-01-09T12:20:52.909Z,100329.72
2019-01-09T12:25:55.544Z,100334.22
2019-01-09T12:30:57.745Z,100342.42
2019-01-09T12:36:00.048Z,100340.94
2019-01-09T12:41:02.335Z,100345.37
2019-01-09T12:46:04.669Z,100355.27
2019-01-09T12:51:06.906Z,100362.93
2019-01-09T12:56:09.073Z,100382.22
2019-01-09T13:01:11.523Z,100384.21
2019-01-09T13:06:13.823Z,100395.29
2019-01-09T13:11:16.272Z,100408.46
2019-01-09T13:16:19.023Z,100414.00
2019-01-09T13:21:22.231Z,100419.14
2019-01-09T13:26:24.408Z,100431.88
2019-01-09T13:31:26.629Z,100427.17
2019-01-09T13:36:29.553Z,100442.90
2019-01-09T13:41:31.990Z,100450.14
2019-01-09T13:46:34.701Z,100448.36
2019-01-09T13:51:37.531Z,100453.89
2019-01-09T13:56:39.896Z,100457.23
2019-01-09T14:01:42.079Z,100465.29
2019-01-09T14:06:44.316Z,100469.55
2019-01-09T14:11:46.994Z,100471.27
2019-01-09T14:16:49.229Z,100485.87
2019-01-09T14:21:51.863Z,100487.91
2019-01-09T14:26:54.517Z,100488.31
2019-01-09T14:31:57.115Z,100492.80
2019-01-09T14:36:59.746Z,100504.77
2019-01-09T14:42:02.057Z,100506.50
2019-01-09T14:47:04.399Z,100513.45
2019-01-09T14:52:07.271Z,100527.66
2019-01-09T14:57:09.406Z,100535.87
2019-01-09T15:02:11.556Z,100554.89
2019-01-09T15:07:15.450Z,100560.38
2019-01-09T15:12:18.431Z,100566.09
2019-01-09T15:17:20.548Z,100569.73
2019-01-09T15:22:22.918Z,100582.66
2019-01-09T15:27:25.304Z,100594.28
2019-01-09T15:32:27.602Z,100612.72
2019-01-09T15:37:29.779Z,100612.05
2019-01-09T15:42:32.239Z,100617.31
2019-01-09T15:47:34.537Z,100629.28
2019-01-09T15:52:36.769Z,100629.60
2019-01-09T15:57:40.102Z,100631.73
2019-01-09T16:02:42.495Z,100638.59
2019-01-09T16:07:45.424Z,100639.40
2019-01-09T16:12:48.857Z,100652.18
2019-01-09T16:17:51.794Z,100659.85
2019-01-09T16:22:54.523Z,100668.05
2019-01-09T16:27:56.818Z,100664.47
2019-01-09T16:32:59.124Z,100678.73
2019-01-09T16:38:01.734Z,100677.93
2019-01-09T16:43:04.448Z,100687.05
2019-01-09T16:48:06.765Z,100699.50
2019-01-09T16:53:08.927Z,100704.16
2019-01-09T16:58:11.083Z,100714.44
2019-01-09T17:03:13.237Z,100717.49
2019-01-09T17:08:15.465Z,100721.34
2019-01-09T17:13:17.738Z,100733.72
2019-01-09T17:18:20.797Z,100735.05
2019-01-09T17:23:22.976Z,100743.16
2019-01-09T17:28:25.640Z,100755.05
2019-01-09T17:33:28.312Z,100745.98
2019-01-09T17:38:30.733Z,100771.28
2019-01-09T17:43:33.379Z,100772.66
2019-01-09T17:48:35.555Z,100789.43
2019-01-09T17:53:38.299Z,100798.83
2019-01-09T17:58:40.710Z,100811.28
2019-01-09T18:03:43.506Z,100818.55
2019-01-09T18:08:46.280Z,100834.02
2019-01-09T18:13:48.973Z,100845.15
2019-01-09T18:18:51.255Z,100847.97
2019-01-09T18:23:53.752Z,100862.19
2019-01-09T18:28:56.263Z,100863.14
2019-01-09T18:34:29.790Z,100881.88
2019-01-09T18:40:19.165Z,100889.59
2019-01-09T18:45:42.976Z,100902.81
2019-01-09T18:51:02.869Z,100918.61
2019-01-09T18:56:08.197Z,100924.16
2019-01-09T19:01:10.630Z,100931.02
2019-01-09T19:06:13.375Z,100937.05
2019-01-09T19:11:15.746Z,100950.67
2019-01-09T19:16:18.249Z,100954.03
2019-01-09T19:21:20.461Z,100961.27
2019-01-09T19:26:22.716Z,100975.64
2019-01-09T19:31:25.654Z,100982.77
2019-01-09T19:36:27.816Z,100988.28
2019-01-09T19:41:30.563Z,100992.04
2019-01-09T19:46:32.739Z,101005.57
2019-01-09T19:51:35.615Z,101011.09
2019-01-09T19:56:37.827Z,101020.50
2019-01-09T20:01:40.425Z,101036.74
2019-01-09T20:06:43.845Z,101038.77
2019-01-09T20:11:46.308Z,101048.52
2019-01-09T20:16:48.896Z,101062.12
2019-01-09T20:21:51.676Z,101058.19
2019-01-09T20:26:54.151Z,101070.52
2019-01-09T20:31:56.887Z,101074.67
2019-01-09T20:36:59.095Z,101087.87
2019-01-09T20:42:01.430Z,101092.14
2019-01-09T20:47:04.048Z,101096.85
2019-01-09T20:52:07.953Z,101113.88
2019-01-09T20:57:10.828Z,101116.83
2019-01-09T21:02:13.879Z,101125.73
2019-01-09T21:07:16.250Z,101133.45
2019-01-09T21:12:18.574Z,101145.89
2019-01-09T21:17:20.744Z,101151.88
2019-01-09T21:22:22.946Z,101154.86
2019-01-09T21:27:25.450Z,101170.17
2019-01-09T21:32:27.788Z,101177.42
2019-01-09T21:37:30.185Z,101175.77
2019-01-09T21:42:32.486Z,101186.43
2019-01-09T21:47:35.335Z,101194.26
2019-01-09T21:52:38.195Z,101193.98
2019-01-09T21:57:41.299Z,101204.38
2019-01-09T22:02:43.707Z,101212.10
2019-01-09T22:07:47.082Z,101218.98
2019-01-09T22:12:49.537Z,101221.20
2019-01-09T22:17:52.702Z,101225.58
2019-01-09T22:22:55.257Z,101231.70
2019-01-09T22:27:58.338Z,101234.40
2019-01-09T22:33:00.840Z,101248.21
2019-01-09T22:38:03.553Z,101252.51
2019-01-09T22:43:06.391Z,101268.45
2019-01-09T22:48:08.639Z,101269.77
2019-01-09T22:53:11.370Z,101280.59
2019-01-09T22:58:14.045Z,101278.48
2019-01-09T23:03:16.718Z,101288.46
2019-01-09T23:08:19.550Z,101276.53
2019-01-09T23:13:22.549Z,101291.16
2019-01-09T23:18:24.892Z,101296.71
2019-01-09T23:23:27.590Z,101292.85
2019-01-09T23:28:30.357Z,101295.86
2019-01-09T23:33:32.975Z,101303.58
2019-01-09T23:38:35.586Z,101308.34
2019-01-09T23:43:38.065Z,101320.83
2019-01-09T23:48:40.459Z,101323.87
2019-01-09T23:53:44.335Z,101327.84
2019-01-09T23:58:46.778Z,101344.59
